Time;durP1;ratioP1;P1;durP2;ratioP2;P2;SDS_P1;SDS_P2;PMS_P1;PMS_P2;Temp;Humidity;BMP_temperature;BMP_pressure;BME280_temperature;BME280_humidity;BME280_pressure;Samples;Min_cycle;Max_cycle;Signal;HPM_P1;HPM_P2
2021/05/23 00:01:47;;;;;;;0.90;0.70;;;10.60;99.90;;;;;;5094575;28;20241;-62
2021/05/23 00:04:14;;;;;;;1.10;0.80;;;10.60;99.90;;;;;;5094695;28;20204;-61
2021/05/23 00:06:42;;;;;;;1.37;0.60;;;10.60;99.90;;;;;;5094954;28;20610;-62
2021/05/23 00:09:09;;;;;;;1.67;0.87;;;10.60;99.90;;;;;;5094635;28;20204;-61
2021/05/23 00:11:37;;;;;;;1.13;0.80;;;10.60;99.90;;;;;;5094489;28;20620;-62
2021/05/23 00:14:04;;;;;;;0.70;0.70;;;10.60;99.90;;;;;;5094493;28;20290;-61
2021/05/23 00:16:32;;;;;;;0.60;0.60;;;10.50;99.90;;;;;;5094477;28;20196;-62
2021/05/23 00:18:59;;;;;;;1.00;0.70;;;10.40;99.90;;;;;;5094382;28;20215;-61
2021/05/23 00:21:26;;;;;;;1.43;0.93;;;10.50;99.90;;;;;;5094598;28;20247;-62
2021/05/23 00:23:55;;;;;;;1.10;0.73;;;10.30;99.90;;;;;;5094694;28;20306;-62
2021/05/23 00:26:22;;;;;;;1.07;0.50;;;10.20;99.90;;;;;;5094579;28;20196;-62
2021/05/23 00:28:50;;;;;;;0.83;0.60;;;10.30;99.90;;;;;;5094518;28;20207;-62
2021/05/23 00:31:27;;;;;;;0.80;0.70;;;10.30;99.90;;;;;;5094154;28;20207;-60
2021/05/23 00:33:55;;;;;;;0.60;0.60;;;10.20;99.90;;;;;;5094433;28;20787;-61
2021/05/23 00:36:22;;;;;;;1.07;0.60;;;10.20;99.90;;;;;;5094441;28;20291;-61
2021/05/23 00:38:49;;;;;;;1.43;0.67;;;10.30;99.90;;;;;;5094190;28;20207;-62
2021/05/23 00:41:18;;;;;;;1.00;0.60;;;10.20;99.90;;;;;;5094156;28;20220;-61
2021/05/23 00:43:45;;;;;;;0.80;0.70;;;10.20;99.90;;;;;;5094209;28;20294;-61
2021/05/23 00:46:13;;;;;;;0.63;0.60;;;10.20;99.90;;;;;;5093733;28;20196;-61
2021/05/23 00:48:40;;;;;;;1.93;0.90;;;10.10;99.90;;;;;;5094105;28;20223;-61
2021/05/23 00:51:07;;;;;;;0.87;0.77;;;10.10;99.90;;;;;;5093533;28;20224;-62
2021/05/23 00:53:36;;;;;;;1.20;0.80;;;10.20;99.90;;;;;;5093409;28;20265;-61
2021/05/23 00:56:03;;;;;;;1.50;0.73;;;10.30;99.90;;;;;;5093615;28;20239;-62
2021/05/23 00:58:31;;;;;;;0.90;0.80;;;10.30;99.90;;;;;;5093489;28;20652;-61
2021/05/23 01:01:14;;;;;;;0.70;0.70;;;10.40;99.90;;;;;;5093620;28;20220;-61
2021/05/23 01:03:59;;;;;;;0.50;0.43;;;10.50;99.90;;;;;;5093881;28;20185;-61
2021/05/23 01:06:28;;;;;;;2.13;1.00;;;10.60;99.90;;;;;;5093923;28;20200;-62
2021/05/23 01:08:56;;;;;;;0.70;0.67;;;10.50;99.90;;;;;;5093789;28;20235;-62
2021/05/23 01:12:08;;;;;;;1.80;0.97;;;10.60;99.90;;;;;;5094613;28;20200;-62
2021/05/23 01:14:51;;;;;;;0.80;0.80;;;10.50;99.90;;;;;;5093364;28;20199;-62
2021/05/23 01:17:23;;;;;;;1.43;0.77;;;10.60;99.90;;;;;;5093239;28;20188;-61
2021/05/23 01:20:03;;;;;;;2.40;0.70;;;10.70;99.90;;;;;;5093639;28;20219;-61
2021/05/23 01:22:37;;;;;;;0.83;0.60;;;10.70;99.90;;;;;;5093562;28;20187;-61
2021/05/23 01:25:12;;;;;;;1.90;0.80;;;10.80;99.90;;;;;;5093351;28;20530;-62
2021/05/23 01:27:47;;;;;;;2.23;0.70;;;10.70;99.90;;;;;;5093531;28;20287;-62
2021/05/23 01:30:18;;;;;;;1.57;1.00;;;11.00;99.90;;;;;;5093461;28;20203;-61
2021/05/23 01:32:48;;;;;;;1.50;0.90;;;10.60;99.90;;;;;;5093580;28;20200;-62
2021/05/23 01:35:22;;;;;;;0.80;0.80;;;10.60;99.90;;;;;;5093369;28;20191;-61
2021/05/23 01:37:59;;;;;;;1.63;0.70;;;10.50;99.90;;;;;;5093076;28;20215;-62
2021/05/23 01:40:29;;;;;;;1.43;0.80;;;10.60;99.90;;;;;;5093230;28;20234;-62
2021/05/23 01:42:57;;;;;;;1.40;0.93;;;10.60;99.90;;;;;;5093285;28;20185;-62
2021/05/23 01:45:25;;;;;;;1.33;1.03;;;10.70;99.90;;;;;;5092846;28;20226;-61
2021/05/23 01:47:53;;;;;;;1.37;0.80;;;10.70;99.90;;;;;;5092753;28;20239;-61
2021/05/23 01:50:21;;;;;;;1.17;0.90;;;10.70;99.90;;;;;;5092506;28;20794;-61
2021/05/23 01:52:50;;;;;;;1.60;0.87;;;10.50;99.90;;;;;;5093043;28;20242;-62
2021/05/23 01:55:18;;;;;;;1.50;0.90;;;10.50;99.90;;;;;;5092981;28;20210;-62
2021/05/23 01:57:46;;;;;;;1.20;0.90;;;10.50;99.90;;;;;;5093024;28;20200;-62
2021/05/23 02:00:17;;;;;;;2.50;1.00;;;10.50;99.90;;;;;;5092773;28;20300;-63
2021/05/23 02:02:44;;;;;;;4.10;0.80;;;10.50;99.90;;;;;;5092418;28;20641;-61
2021/05/23 02:05:13;;;;;;;1.00;0.70;;;10.40;99.90;;;;;;5092961;28;20210;-62
2021/05/23 02:07:41;;;;;;;1.00;0.90;;;10.40;99.90;;;;;;5092885;28;20211;-62
2021/05/23 02:10:11;;;;;;;1.23;0.97;;;10.50;99.90;;;;;;5092799;28;20291;-62
2021/05/23 02:12:39;;;;;;;1.07;0.60;;;10.50;99.90;;;;;;5092932;28;20234;-61
2021/05/23 02:15:09;;;;;;;1.53;0.70;;;10.60;99.90;;;;;;5092747;28;20251;-61
2021/05/23 02:17:37;;;;;;;1.10;1.00;;;10.60;99.90;;;;;;5093091;28;20303;-61
2021/05/23 02:20:06;;;;;;;1.13;1.03;;;10.60;99.90;;;;;;5092807;28;20203;-62
2021/05/23 02:22:38;;;;;;;1.00;0.80;;;10.70;99.90;;;;;;5092811;28;20212;-63
2021/05/23 02:25:07;;;;;;;1.40;0.90;;;10.70;99.90;;;;;;5092847;28;20188;-62
2021/05/23 02:27:38;;;;;;;1.77;1.00;;;10.60;99.90;;;;;;5092765;28;20207;-61
2021/05/23 02:30:09;;;;;;;1.43;0.80;;;10.50;99.90;;;;;;5092505;28;20204;-62
2021/05/23 02:32:37;;;;;;;1.10;1.03;;;10.50;99.90;;;;;;5091987;28;20613;-62
2021/05/23 02:35:06;;;;;;;1.37;0.87;;;10.50;99.90;;;;;;5092147;28;20286;-61
2021/05/23 02:37:34;;;;;;;0.80;0.80;;;10.40;99.90;;;;;;5092180;28;20196;-62
2021/05/23 02:40:05;;;;;;;2.13;0.80;;;10.50;99.90;;;;;;5092257;28;20560;-62
2021/05/23 02:42:32;;;;;;;2.30;0.93;;;10.50;99.90;;;;;;5092257;28;20192;-62
2021/05/23 02:45:00;;;;;;;1.07;0.80;;;10.50;99.90;;;;;;5091745;28;20617;-61
2021/05/23 02:47:28;;;;;;;3.47;1.10;;;10.50;99.90;;;;;;5092242;28;20405;-61
2021/05/23 02:49:56;;;;;;;1.10;0.90;;;10.50;99.90;;;;;;5091727;28;20668;-61
2021/05/23 02:52:24;;;;;;;1.57;0.80;;;10.30;99.90;;;;;;5092445;28;20186;-61
2021/05/23 02:54:51;;;;;;;2.63;1.10;;;10.10;99.90;;;;;;5092177;28;20236;-63
2021/05/23 02:57:18;;;;;;;1.20;0.93;;;10.00;99.90;;;;;;5092496;28;20196;-62
2021/05/23 02:59:46;;;;;;;1.33;1.20;;;10.10;99.90;;;;;;5092259;28;20287;-62
2021/05/23 03:02:13;;;;;;;1.10;1.00;;;10.00;99.90;;;;;;5092353;28;20255;-61
2021/05/23 03:04:41;;;;;;;3.00;0.80;;;10.00;99.90;;;;;;5092483;28;20295;-62
2021/05/23 03:07:09;;;;;;;1.43;1.00;;;10.00;99.90;;;;;;5092435;28;20303;-62
2021/05/23 03:09:36;;;;;;;0.90;0.90;;;10.00;99.90;;;;;;5092353;28;20200;-61
2021/05/23 03:12:05;;;;;;;1.67;1.00;;;10.00;99.90;;;;;;5091477;28;20222;-61
2021/05/23 03:14:32;;;;;;;2.13;1.20;;;10.00;99.90;;;;;;5091788;28;20283;-62
2021/05/23 03:16:59;;;;;;;2.77;1.30;;;10.10;99.90;;;;;;5095384;28;20200;-62
2021/05/23 03:19:27;;;;;;;1.43;1.27;;;10.20;99.90;;;;;;5095872;28;20299;-62
2021/05/23 03:21:55;;;;;;;1.87;1.43;;;10.20;99.90;;;;;;5095802;28;20212;-61
2021/05/23 03:24:22;;;;;;;2.03;1.00;;;10.20;99.90;;;;;;5095717;28;20200;-62
2021/05/23 03:26:49;;;;;;;2.40;1.30;;;10.10;99.90;;;;;;5095635;28;20196;-62
2021/05/23 03:29:16;;;;;;;1.57;1.30;;;10.00;99.90;;;;;;5095576;28;20283;-61
2021/05/23 03:31:44;;;;;;;1.30;0.93;;;10.10;99.90;;;;;;5095395;28;20188;-61
2021/05/23 03:34:11;;;;;;;1.23;1.13;;;10.10;99.90;;;;;;5095642;28;20200;-62
2021/05/23 03:36:39;;;;;;;2.43;1.13;;;10.00;99.90;;;;;;5095486;28;20204;-62
2021/05/23 03:39:07;;;;;;;1.77;1.00;;;9.90;99.90;;;;;;5095233;28;20675;-61
2021/05/23 03:41:34;;;;;;;3.07;1.43;;;9.90;99.90;;;;;;5095152;28;20663;-61
2021/05/23 03:44:02;;;;;;;1.20;1.10;;;9.90;99.90;;;;;;5095284;28;20288;-61
2021/05/23 03:46:30;;;;;;;2.00;1.13;;;9.90;99.90;;;;;;5074869;28;20197;-62
2021/05/23 03:48:57;;;;;;;2.10;1.20;;;9.90;99.90;;;;;;5074790;28;20640;-61
2021/05/23 03:51:25;;;;;;;1.33;1.23;;;9.80;99.90;;;;;;5074664;28;20323;-61
2021/05/23 03:53:52;;;;;;;1.77;1.30;;;9.80;99.90;;;;;;5074766;28;20731;-61
2021/05/23 03:56:20;;;;;;;1.67;1.00;;;9.80;99.90;;;;;;5074984;28;20200;-61
2021/05/23 03:58:47;;;;;;;1.23;1.10;;;9.80;99.90;;;;;;5074920;28;20208;-61
2021/05/23 04:01:15;;;;;;;1.40;1.03;;;9.90;99.90;;;;;;5074692;28;20391;-61
2021/05/23 04:03:42;;;;;;;2.37;0.90;;;9.90;99.90;;;;;;5074654;28;20224;-61
2021/05/23 04:06:10;;;;;;;2.40;1.50;;;9.80;99.90;;;;;;5074805;28;20287;-61
2021/05/23 04:08:37;;;;;;;1.20;1.10;;;9.80;99.90;;;;;;5074722;28;20292;-62
2021/05/23 04:11:09;;;;;;;1.77;1.30;;;9.80;99.90;;;;;;5074680;28;20224;-62
2021/05/23 04:13:40;;;;;;;2.13;1.20;;;9.80;99.90;;;;;;5074325;28;20191;-61
2021/05/23 04:16:08;;;;;;;2.17;1.20;;;9.90;99.90;;;;;;5074199;28;20185;-62
2021/05/23 04:18:36;;;;;;;1.50;1.07;;;9.90;99.90;;;;;;5073925;28;20204;-60
2021/05/23 04:21:04;;;;;;;1.17;1.03;;;10.10;99.90;;;;;;5074218;28;20556;-62
2021/05/23 04:23:32;;;;;;;2.50;1.03;;;10.20;99.90;;;;;;5074265;28;20300;-62
2021/05/23 04:26:00;;;;;;;1.73;1.10;;;10.40;99.90;;;;;;5074222;28;20292;-62
2021/05/23 04:28:27;;;;;;;1.83;1.13;;;10.50;99.90;;;;;;5074310;28;20283;-61
2021/05/23 04:30:56;;;;;;;2.43;1.20;;;10.60;99.90;;;;;;5074197;28;20203;-62
2021/05/23 04:33:24;;;;;;;1.90;1.10;;;10.70;99.90;;;;;;5074003;28;20201;-63
2021/05/23 04:35:52;;;;;;;2.83;1.10;;;10.60;99.90;;;;;;5073563;28;20664;-61
2021/05/23 04:38:19;;;;;;;3.57;1.30;;;10.80;99.90;;;;;;5073813;28;20208;-61
2021/05/23 04:40:51;;;;;;;2.10;0.97;;;11.00;99.90;;;;;;5074068;28;20556;-62
2021/05/23 04:43:18;;;;;;;1.47;0.87;;;11.30;99.90;;;;;;5073829;28;20256;-61
2021/05/23 04:45:45;;;;;;;1.10;0.90;;;11.60;99.90;;;;;;5088204;28;20280;-61
2021/05/23 04:48:13;;;;;;;2.83;0.90;;;11.70;99.90;;;;;;5094085;28;20295;-62
2021/05/23 04:50:41;;;;;;;1.23;0.87;;;11.90;99.90;;;;;;5093609;28;20259;-62
2021/05/23 04:53:08;;;;;;;1.63;0.90;;;12.00;99.90;;;;;;5093775;28;20747;-61
2021/05/23 04:55:36;;;;;;;2.23;1.00;;;12.20;99.90;;;;;;5094006;28;20287;-62
2021/05/23 04:58:04;;;;;;;1.30;0.73;;;12.40;99.90;;;;;;5093988;28;20303;-62
2021/05/23 05:00:31;;;;;;;1.60;0.80;;;12.60;99.90;;;;;;5093696;28;20222;-62
2021/05/23 05:02:58;;;;;;;3.90;1.00;;;12.60;99.90;;;;;;5093712;28;20236;-61
2021/05/23 05:05:26;;;;;;;2.47;1.00;;;12.80;99.90;;;;;;5093411;28;20683;-61
2021/05/23 05:07:54;;;;;;;2.93;0.73;;;13.10;99.90;;;;;;5093689;28;20257;-62
2021/05/23 05:10:22;;;;;;;1.45;0.75;;;14.50;99.90;;;;;;5093371;28;20294;-61
2021/05/23 05:12:49;;;;;;;1.50;0.70;;;16.50;99.90;;;;;;5093690;28;20246;-62
2021/05/23 05:15:17;;;;;;;3.55;0.73;;;18.30;99.90;;;;;;5093370;28;20272;-62
2021/05/23 05:17:44;;;;;;;1.35;0.80;;;19.80;99.90;;;;;;5093150;28;20299;-62
2021/05/23 05:20:12;;;;;;;1.25;0.80;;;20.40;99.90;;;;;;5093447;28;20219;-61
2021/05/23 05:22:40;;;;;;;0.93;0.75;;;20.70;99.90;;;;;;5093290;28;20223;-62
2021/05/23 05:25:09;;;;;;;1.90;0.82;;;20.40;99.90;;;;;;5093284;28;20541;-62
2021/05/23 05:27:36;;;;;;;2.33;0.90;;;20.10;99.90;;;;;;5093435;28;20291;-62
2021/05/23 05:30:05;;;;;;;2.75;1.00;;;19.60;99.90;;;;;;5093196;28;20250;-62
2021/05/23 05:32:33;;;;;;;1.63;0.90;;;18.90;99.90;;;;;;5093182;28;20202;-62
2021/05/23 05:35:00;;;;;;;4.13;1.08;;;17.90;99.90;;;;;;5092879;28;20645;-62
2021/05/23 05:37:27;;;;;;;4.70;1.08;;;17.00;99.90;;;;;;5092508;28;20719;-61
2021/05/23 05:39:56;;;;;;;1.67;0.90;;;16.50;99.90;;;;;;5092882;28;20252;-61
2021/05/23 05:42:23;;;;;;;2.10;0.98;;;16.20;99.90;;;;;;5092768;28;20222;-61
2021/05/23 05:44:51;;;;;;;2.40;0.90;;;15.60;99.90;;;;;;5092922;28;20200;-61
2021/05/23 05:47:18;;;;;;;2.47;1.00;;;15.30;99.90;;;;;;5092962;28;20227;-61
2021/05/23 05:49:45;;;;;;;1.77;0.90;;;14.90;99.90;;;;;;5092842;28;20223;-62
2021/05/23 05:52:13;;;;;;;1.90;0.90;;;14.90;99.90;;;;;;5092735;28;20687;-61
2021/05/23 05:54:40;;;;;;;2.00;1.00;;;14.80;99.90;;;;;;5092788;28;20245;-62
2021/05/23 05:57:08;;;;;;;1.80;1.00;;;14.90;99.90;;;;;;5092683;28;20239;-60
2021/05/23 05:59:44;;;;;;;2.23;0.97;;;14.90;99.90;;;;;;5092690;28;20188;-60
2021/05/23 06:02:12;;;;;;;1.60;0.80;;;14.80;99.90;;;;;;5092827;28;20219;-61
2021/05/23 06:04:39;;;;;;;2.63;0.87;;;14.80;99.90;;;;;;5092889;28;20234;-62
2021/05/23 06:07:07;;;;;;;2.33;0.90;;;14.70;99.90;;;;;;5092846;28;20200;-62
2021/05/23 06:09:34;;;;;;;1.43;0.87;;;14.90;99.90;;;;;;5092483;28;20647;-62
2021/05/23 06:12:02;;;;;;;2.30;0.80;;;14.90;99.90;;;;;;5092761;28;20196;-62
2021/05/23 06:14:30;;;;;;;1.80;0.80;;;15.00;99.90;;;;;;5092393;28;20207;-62
2021/05/23 06:16:57;;;;;;;2.33;0.80;;;15.00;99.90;;;;;;5092640;28;20283;-62
2021/05/23 06:19:25;;;;;;;2.10;0.80;;;14.90;99.90;;;;;;5092457;28;20238;-62
2021/05/23 06:21:52;;;;;;;2.33;1.03;;;14.90;99.90;;;;;;5092506;28;20291;-61
2021/05/23 06:24:20;;;;;;;2.83;1.00;;;15.00;99.90;;;;;;5092544;28;20204;-63
2021/05/23 06:26:47;;;;;;;2.17;0.90;;;15.00;99.90;;;;;;5092681;28;20199;-62
2021/05/23 06:29:14;;;;;;;2.00;0.90;;;15.10;99.90;;;;;;5092505;28;20291;-61
2021/05/23 06:31:43;;;;;;;2.03;1.00;;;15.10;99.90;;;;;;5092346;28;20286;-61
2021/05/23 06:34:10;;;;;;;1.67;0.90;;;15.10;99.90;;;;;;5092247;28;20555;-62
2021/05/23 06:36:37;;;;;;;2.43;1.00;;;15.00;99.90;;;;;;5092487;28;20199;-61
2021/05/23 06:39:06;;;;;;;1.80;0.90;;;15.00;99.90;;;;;;5092402;28;20287;-61
2021/05/23 06:41:33;;;;;;;1.37;0.80;;;14.80;99.90;;;;;;5092559;28;20200;-62
2021/05/23 06:44:01;;;;;;;2.07;0.80;;;14.80;99.90;;;;;;5092344;28;20288;-61
2021/05/23 06:46:28;;;;;;;1.07;0.80;;;14.90;99.90;;;;;;5071998;28;20723;-63
2021/05/23 06:48:56;;;;;;;1.10;0.97;;;15.00;99.90;;;;;;5074096;28;20207;-62
2021/05/23 06:51:23;;;;;;;3.37;0.80;;;15.00;99.90;;;;;;5093743;28;20823;-62
2021/05/23 06:53:51;;;;;;;2.03;0.87;;;15.10;99.90;;;;;;5095919;28;20291;-62
2021/05/23 06:56:18;;;;;;;1.13;0.80;;;15.20;99.90;;;;;;5095836;28;20748;-61
2021/05/23 06:58:46;;;;;;;2.60;0.80;;;15.30;99.90;;;;;;5096032;28;20325;-62
2021/05/23 07:01:14;;;;;;;1.00;0.90;;;15.40;99.90;;;;;;5095808;28;20279;-61
2021/05/23 07:03:41;;;;;;;0.83;0.70;;;15.30;99.90;;;;;;5095830;28;20258;-62
2021/05/23 07:06:10;;;;;;;2.38;0.90;;;15.40;99.90;;;;;;5095830;28;20658;-62
2021/05/23 07:08:37;;;;;;;0.73;0.70;;;15.40;99.90;;;;;;5096022;28;20202;-62
2021/05/23 07:11:04;;;;;;;2.13;0.90;;;15.40;99.90;;;;;;5095745;28;20291;-62
2021/05/23 07:13:32;;;;;;;1.25;0.88;;;15.40;99.90;;;;;;5095793;28;20206;-63
2021/05/23 07:15:59;;;;;;;2.33;0.90;;;15.40;99.90;;;;;;5095100;28;20315;-61
2021/05/23 07:18:26;;;;;;;1.57;0.83;;;15.40;99.90;;;;;;5095407;28;20196;-61
2021/05/23 07:20:59;;;;;;;2.13;0.90;;;15.20;99.90;;;;;;5095646;28;20291;-62
2021/05/23 07:23:28;;;;;;;1.85;0.80;;;15.20;99.90;;;;;;5095650;28;20610;-61
2021/05/23 07:25:56;;;;;;;0.82;0.70;;;15.30;99.90;;;;;;5095288;28;20291;-62
2021/05/23 07:28:24;;;;;;;1.20;0.70;;;15.40;99.90;;;;;;5094936;28;20258;-62
2021/05/23 07:30:51;;;;;;;1.50;0.90;;;15.40;99.90;;;;;;5095219;28;20310;-63
2021/05/23 07:33:19;;;;;;;2.23;0.90;;;15.40;99.90;;;;;;5095052;28;20235;-62
2021/05/23 07:35:47;;;;;;;1.67;0.80;;;15.40;99.90;;;;;;5095081;28;20200;-63
2021/05/23 07:38:15;;;;;;;2.80;0.83;;;15.60;99.90;;;;;;5095394;28;20211;-61
2021/05/23 07:40:43;;;;;;;2.50;0.90;;;15.70;99.90;;;;;;5095335;28;20203;-62
2021/05/23 07:43:10;;;;;;;2.30;0.90;;;15.70;99.90;;;;;;5095168;28;20224;-61
2021/05/23 07:45:38;;;;;;;0.68;0.68;;;15.70;99.90;;;;;;5095134;28;20234;-63
2021/05/23 07:48:06;;;;;;;2.20;0.90;;;15.70;99.90;;;;;;5094481;28;20700;-62
2021/05/23 07:50:34;;;;;;;1.23;0.82;;;15.90;99.90;;;;;;5094825;28;20232;-62
2021/05/23 07:53:02;;;;;;;2.80;1.07;;;16.00;99.90;;;;;;5095113;28;20237;-62
2021/05/23 07:55:29;;;;;;;1.90;1.10;;;15.90;99.90;;;;;;5094817;28;20204;-63
2021/05/23 07:57:58;;;;;;;1.42;0.68;;;15.80;99.90;;;;;;5094634;28;20287;-62
2021/05/23 08:00:26;;;;;;;1.02;0.75;;;15.90;99.90;;;;;;5094733;28;20196;-62
2021/05/23 08:02:57;;;;;;;2.65;0.80;;;16.10;99.90;;;;;;5094440;28;20208;-62
2021/05/23 08:05:25;;;;;;;1.95;0.85;;;16.30;99.90;;;;;;5094778;28;20598;-62
2021/05/23 08:07:53;;;;;;;1.50;0.70;;;16.50;99.90;;;;;;5094495;28;20200;-62
2021/05/23 08:10:20;;;;;;;1.00;0.60;;;16.60;99.90;;;;;;5094750;28;20208;-62
2021/05/23 08:12:48;;;;;;;0.80;0.60;;;16.80;99.90;;;;;;5094643;28;20192;-63
2021/05/23 08:15:17;;;;;;;1.95;0.80;;;16.80;99.90;;;;;;5094664;28;20231;-62
2021/05/23 08:17:45;;;;;;;1.45;0.70;;;16.70;99.90;;;;;;5094106;28;20287;-62
2021/05/23 08:20:14;;;;;;;3.40;0.93;;;16.70;99.90;;;;;;5094425;28;20208;-62
2021/05/23 08:22:42;;;;;;;1.40;0.63;;;16.80;99.90;;;;;;5094344;28;20220;-63
2021/05/23 08:25:10;;;;;;;1.67;0.77;;;17.20;99.90;;;;;;5094364;28;20196;-62
2021/05/23 08:27:37;;;;;;;1.77;0.77;;;17.50;99.90;;;;;;5094185;28;20218;-62
2021/05/23 08:30:06;;;;;;;1.10;0.60;;;17.70;99.90;;;;;;5093996;28;20670;-63
2021/05/23 08:32:36;;;;;;;1.75;0.68;;;17.90;99.90;;;;;;5094264;28;20291;-63
2021/05/23 08:35:04;;;;;;;2.55;0.70;;;17.80;99.90;;;;;;5094333;28;20227;-62
2021/05/23 08:37:31;;;;;;;1.35;0.82;;;17.80;99.90;;;;;;5094213;28;20231;-62
2021/05/23 08:39:59;;;;;;;1.50;0.80;;;17.80;99.90;;;;;;5093810;28;20307;-63
2021/05/23 08:42:26;;;;;;;1.83;0.70;;;17.50;99.90;;;;;;5092460;28;20294;-64
2021/05/23 08:44:54;;;;;;;1.23;0.90;;;17.10;99.90;;;;;;5093829;28;20292;-64
2021/05/23 08:47:22;;;;;;;0.88;0.75;;;16.70;99.90;;;;;;5093787;28;20291;-64
2021/05/23 08:49:51;;;;;;;2.38;0.70;;;16.60;99.90;;;;;;5093588;28;20199;-64
2021/05/23 08:52:19;;;;;;;2.20;0.70;;;16.70;99.90;;;;;;5093512;28;20735;-65
2021/05/23 08:54:48;;;;;;;1.88;0.80;;;16.40;99.90;;;;;;5093830;28;20631;-61
2021/05/23 08:57:22;;;;;;;2.35;0.82;;;16.10;99.90;;;;;;5093715;28;20211;-62
2021/05/23 08:59:50;;;;;;;1.03;0.60;;;15.80;99.90;;;;;;5093309;28;20194;-62
2021/05/23 09:02:17;;;;;;;2.38;0.70;;;15.60;99.90;;;;;;5093605;28;20291;-62
2021/05/23 09:04:50;;;;;;;1.95;0.70;;;15.60;99.90;;;;;;5093551;28;20216;-61
2021/05/23 09:07:18;;;;;;;1.63;0.70;;;15.80;99.90;;;;;;5093423;28;20200;-63
2021/05/23 09:09:47;;;;;;;2.70;0.77;;;16.00;99.90;;;;;;5092958;28;20751;-62
2021/05/23 09:12:16;;;;;;;1.27;0.70;;;16.30;99.90;;;;;;5092456;28;20223;-62
2021/05/23 09:14:45;;;;;;;2.43;0.90;;;16.40;99.90;;;;;;5091967;28;20681;-62
2021/05/23 09:17:20;;;;;;;2.05;0.88;;;16.50;99.90;;;;;;5092774;28;20584;-62
2021/05/23 09:19:49;;;;;;;1.90;0.80;;;16.60;99.90;;;;;;5092958;28;20205;-63
2021/05/23 09:22:19;;;;;;;0.88;0.70;;;16.60;99.90;;;;;;5092703;28;20212;-62
2021/05/23 09:24:52;;;;;;;2.22;0.70;;;16.80;99.90;;;;;;5092648;28;20588;-62
2021/05/23 09:27:20;;;;;;;1.50;0.60;;;16.90;99.90;;;;;;5093159;28;20180;-62
2021/05/23 09:29:59;;;;;;;1.27;0.80;;;17.10;99.90;;;;;;5092889;28;20310;-62
2021/05/23 09:32:26;;;;;;;1.75;0.93;;;17.10;99.90;;;;;;5092566;28;20507;-61
2021/05/23 09:35:03;;;;;;;0.65;0.50;;;17.20;99.90;;;;;;5092928;28;20254;-61
2021/05/23 09:37:30;;;;;;;0.80;0.70;;;17.20;99.90;;;;;;5092787;28;20180;-63
2021/05/23 09:39:58;;;;;;;1.08;0.80;;;17.30;99.90;;;;;;5093141;28;20294;-62
2021/05/23 09:42:25;;;;;;;1.83;0.70;;;17.40;99.90;;;;;;5092806;28;20204;-61
2021/05/23 09:44:57;;;;;;;0.77;0.68;;;17.40;99.90;;;;;;5091991;28;20269;-62
2021/05/23 09:47:24;;;;;;;2.95;0.85;;;17.00;99.90;;;;;;5092462;28;20265;-61
2021/05/23 09:49:54;;;;;;;2.05;0.80;;;16.70;99.90;;;;;;5092355;28;20258;-61
2021/05/23 09:52:34;;;;;;;1.00;0.90;;;16.30;99.90;;;;;;5092719;28;20246;-61
2021/05/23 09:55:03;;;;;;;1.42;0.85;;;16.10;99.90;;;;;;5092875;28;20199;-61
2021/05/23 09:57:31;;;;;;;1.90;0.90;;;16.00;99.90;;;;;;5092650;28;20204;-60
2021/05/23 09:59:59;;;;;;;1.97;0.97;;;16.00;99.90;;;;;;5092074;28;20675;-61
2021/05/23 10:02:27;;;;;;;1.08;0.90;;;16.00;99.90;;;;;;5092224;28;20235;-63
2021/05/23 10:05:13;;;;;;;1.27;0.88;;;16.20;99.90;;;;;;5092025;28;20330;-62
2021/05/23 10:07:41;;;;;;;1.50;0.80;;;16.50;99.90;;;;;;5092239;28;20291;-60
2021/05/23 10:10:10;;;;;;;2.85;1.08;;;16.50;99.90;;;;;;5092533;28;20200;-67
2021/05/23 10:12:37;;;;;;;2.70;0.82;;;16.70;99.90;;;;;;5092327;28;20200;-67
2021/05/23 10:15:06;;;;;;;1.20;0.90;;;16.90;99.90;;;;;;5092320;28;20668;-66
2021/05/23 10:17:53;;;;;;;3.72;0.80;;;17.00;99.90;;;;;;5092691;28;20196;-65
2021/05/23 10:20:22;;;;;;;1.75;1.00;;;16.90;99.90;;;;;;5092627;28;20239;-65
2021/05/23 10:22:50;;;;;;;1.08;0.90;;;16.70;99.90;;;;;;5092472;28;20295;-64
2021/05/23 10:25:18;;;;;;;1.52;0.80;;;16.50;99.90;;;;;;5094608;28;20220;-64
2021/05/23 10:27:47;;;;;;;0.70;0.70;;;16.40;99.90;;;;;;5096270;28;20290;-63
2021/05/23 10:30:18;;;;;;;1.00;0.90;;;16.40;99.90;;;;;;5095974;28;20726;-62
2021/05/23 10:32:45;;;;;;;1.02;0.85;;;16.60;99.90;;;;;;5096239;28;20191;-64
2021/05/23 10:35:16;;;;;;;1.35;0.70;;;16.70;99.90;;;;;;5096333;28;20208;-64
2021/05/23 10:37:46;;;;;;;1.02;0.80;;;16.70;99.90;;;;;;5096258;28;20184;-62
2021/05/23 10:40:23;;;;;;;1.00;0.90;;;17.00;99.90;;;;;;5096260;28;20184;-61
2021/05/23 10:42:53;;;;;;;0.75;0.70;;;17.30;99.90;;;;;;5096133;28;20279;-61
2021/05/23 10:45:22;;;;;;;0.80;0.68;;;17.40;99.90;;;;;;5095854;28;20307;-62
2021/05/23 10:47:55;;;;;;;1.00;0.90;;;17.50;99.90;;;;;;5095710;28;20279;-61
2021/05/23 10:50:34;;;;;;;1.10;0.80;;;17.10;99.90;;;;;;5095826;28;20231;-61
2021/05/23 10:53:02;;;;;;;1.30;0.80;;;16.70;99.90;;;;;;5096280;28;20191;-60
2021/05/23 10:55:30;;;;;;;1.63;0.90;;;16.60;99.90;;;;;;5096015;28;20307;-61
2021/05/23 10:57:58;;;;;;;2.55;1.00;;;16.70;99.90;;;;;;5095524;28;20231;-60
2021/05/23 11:00:27;;;;;;;1.10;0.82;;;16.90;99.90;;;;;;5095716;28;20200;-64
2021/05/23 11:03:10;;;;;;;2.55;0.95;;;17.20;99.90;;;;;;5095614;28;20211;-64
2021/05/23 11:05:37;;;;;;;1.38;0.70;;;17.50;99.90;;;;;;5095391;28;20198;-64
2021/05/23 11:08:07;;;;;;;2.55;0.85;;;17.90;99.90;;;;;;5095296;28;20199;-62
2021/05/23 11:10:40;;;;;;;1.02;0.65;;;18.30;99.90;;;;;;5095350;28;20258;-63
2021/05/23 11:13:09;;;;;;;0.60;0.60;;;18.50;99.90;;;;;;5094795;28;20576;-62
2021/05/23 11:15:42;;;;;;;0.60;0.60;;;18.30;99.90;;;;;;5094869;28;20200;-67
2021/05/23 11:18:10;;;;;;;0.63;0.60;;;17.80;99.90;;;;;;5095364;28;20283;-66
2021/05/23 11:20:42;;;;;;;0.40;0.40;;;17.60;99.90;;;;;;5095333;28;20237;-59
2021/05/23 11:23:09;;;;;;;0.75;0.57;;;17.70;99.90;;;;;;5095083;28;20204;-61
2021/05/23 11:25:37;;;;;;;0.68;0.60;;;17.90;99.90;;;;;;5095307;28;20540;-62
2021/05/23 11:28:07;;;;;;;0.70;0.60;;;17.70;99.90;;;;;;5095369;28;20540;-61
2021/05/23 11:30:37;;;;;;;0.85;0.40;;;17.50;99.90;;;;;;5095085;28;20187;-63
2021/05/23 11:33:07;;;;;;;0.50;0.50;;;17.40;99.90;;;;;;5094893;28;20238;-64
2021/05/23 11:35:36;;;;;;;0.40;0.40;;;17.40;99.90;;;;;;5094272;28;20647;-63
2021/05/23 11:38:04;;;;;;;0.68;0.50;;;17.10;99.90;;;;;;5095024;28;20291;-62
2021/05/23 11:40:39;;;;;;;0.73;0.50;;;17.10;99.90;;;;;;5094990;28;20219;-62
2021/05/23 11:43:12;;;;;;;0.93;0.60;;;17.30;99.90;;;;;;5094968;28;20204;-61
2021/05/23 11:45:44;;;;;;;0.70;0.70;;;17.40;99.90;;;;;;5094650;28;20212;-66
2021/05/23 11:48:11;;;;;;;0.80;0.63;;;17.30;99.90;;;;;;5094418;28;20661;-65
2021/05/23 11:50:39;;;;;;;0.80;0.80;;;17.10;99.90;;;;;;5094663;28;20322;-65
2021/05/23 11:53:06;;;;;;;0.70;0.70;;;17.00;99.90;;;;;;5094946;28;20275;-66
2021/05/23 11:55:34;;;;;;;0.77;0.77;;;17.20;99.90;;;;;;5094690;28;20292;-66
2021/05/23 11:58:11;;;;;;;1.85;1.00;;;17.20;99.90;;;;;;5094772;28;20204;-62
2021/05/23 12:00:38;;;;;;;1.42;0.70;;;17.00;99.90;;;;;;5094289;28;20238;-61
2021/05/23 12:03:06;;;;;;;3.63;0.80;;;16.90;99.90;;;;;;5094226;28;20556;-63
2021/05/23 12:05:38;;;;;;;0.70;0.70;;;16.90;99.90;;;;;;5094412;28;20223;-67
2021/05/23 12:08:17;;;;;;;1.27;0.70;;;16.90;99.90;;;;;;5094437;28;20235;-62
2021/05/23 12:10:45;;;;;;;1.13;0.85;;;16.90;99.90;;;;;;5094325;28;20180;-61
2021/05/23 12:13:13;;;;;;;1.30;0.90;;;16.70;99.90;;;;;;5094543;28;20199;-63
2021/05/23 12:15:40;;;;;;;0.75;0.68;;;16.60;99.90;;;;;;5094142;28;20203;-62
2021/05/23 12:18:07;;;;;;;0.77;0.77;;;16.40;99.90;;;;;;5094304;28;20294;-63
2021/05/23 12:20:35;;;;;;;1.15;0.93;;;16.10;99.90;;;;;;5094230;28;20325;-62
2021/05/23 12:23:05;;;;;;;1.00;0.70;;;16.20;99.90;;;;;;5094284;28;20582;-61
2021/05/23 12:25:32;;;;;;;1.58;1.00;;;16.80;99.90;;;;;;5093875;28;20220;-61
2021/05/23 12:27:59;;;;;;;1.15;1.05;;;17.10;99.90;;;;;;5094128;28;20291;-60
2021/05/23 12:30:30;;;;;;;1.10;0.90;;;17.30;99.90;;;;;;5093866;28;20200;-60
2021/05/23 12:32:58;;;;;;;1.02;0.90;;;17.40;99.90;;;;;;5093631;28;20739;-60
2021/05/23 12:35:27;;;;;;;4.00;1.17;;;17.60;99.90;;;;;;5093905;28;20599;-62
2021/05/23 12:37:56;;;;;;;1.10;1.00;;;17.60;99.90;;;;;;5093922;28;20206;-61
2021/05/23 12:40:28;;;;;;;1.83;1.00;;;17.90;99.90;;;;;;5092870;28;20302;-62
2021/05/23 12:43:09;;;;;;;1.25;1.00;;;17.80;99.90;;;;;;5090548;28;20728;-61
2021/05/23 12:45:37;;;;;;;1.65;0.82;;;17.70;99.90;;;;;;5093253;28;20308;-61
2021/05/23 12:48:07;;;;;;;1.75;1.00;;;17.90;99.90;;;;;;5093446;28;20231;-61
2021/05/23 12:50:38;;;;;;;0.85;0.85;;;18.20;99.90;;;;;;5093221;28;20353;-62
2021/05/23 12:53:08;;;;;;;1.00;0.88;;;18.60;99.90;;;;;;5093203;28;20647;-62
2021/05/23 12:55:39;;;;;;;0.80;0.80;;;18.70;99.90;;;;;;5092717;28;20196;-61
2021/05/23 12:58:07;;;;;;;1.55;0.95;;;18.80;99.90;;;;;;5093315;28;20212;-61